sensor_id;sensor_type;location;lat;lon;timestamp;temperature;humidity
18868;DHT22;9563;49.240;9.088;2024-02-26T05:01:37;7.50;99.90
18868;DHT22;9563;49.240;9.088;2024-02-26T05:04:04;7.50;99.90
18868;DHT22;9563;49.240;9.088;2024-02-26T05:06:32;7.40;99.90
18868;DHT22;9563;49.240;9.088;2024-02-26T05:08:59;7.40;99.90
18868;DHT22;9563;49.240;9.088;2024-02-26T05:11:26;7.40;99.90
18868;DHT22;9563;49.240;9.088;2024-02-26T05:13:53;7.40;99.90
18868;DHT22;9563;49.240;9.088;2024-02-26T05:16:20;7.40;99.90
18868;DHT22;9563;49.240;9.088;2024-02-26T05:18:51;7.30;99.90
18868;DHT22;9563;49.240;9.088;2024-02-26T05:21:18;7.30;99.90
18868;DHT22;9563;49.240;9.088;2024-02-26T05:23:45;7.20;99.90
18868;DHT22;9563;49.240;9.088;2024-02-26T05:26:11;7.20;99.90
18868;DHT22;9563;49.240;9.088;2024-02-26T05:28:38;7.10;99.90
18868;DHT22;9563;49.240;9.088;2024-02-26T05:31:05;7.00;99.90
18868;DHT22;9563;49.240;9.088;2024-02-26T05:33:32;7.00;99.90
18868;DHT22;9563;49.240;9.088;2024-02-26T05:36:00;7.00;99.90
18868;DHT22;9563;49.240;9.088;2024-02-26T05:38:29;7.00;99.90
18868;DHT22;9563;49.240;9.088;2024-02-26T05:40:57;6.90;99.90
18868;DHT22;9563;49.240;9.088;2024-02-26T05:43:24;6.90;99.90
18868;DHT22;9563;49.240;9.088;2024-02-26T05:45:51;7.00;99.90
18868;DHT22;9563;49.240;9.088;2024-02-26T05:48:17;7.00;99.90
18868;DHT22;9563;49.240;9.088;2024-02-26T05:50:44;7.00;99.90
18868;DHT22;9563;49.240;9.088;2024-02-26T05:53:14;7.10;99.90
18868;DHT22;9563;49.240;9.088;2024-02-26T05:55:41;7.20;99.90
18868;DHT22;9563;49.240;9.088;2024-02-26T05:58:08;7.10;99.90
18868;DHT22;9563;49.240;9.088;2024-02-26T06:00:35;7.20;99.90
18868;DHT22;9563;49.240;9.088;2024-02-26T06:03:02;7.20;99.90
18868;DHT22;9563;49.240;9.088;2024-02-26T06:05:29;7.20;99.90
18868;DHT22;9563;49.240;9.088;2024-02-26T06:07:55;7.10;99.90
18868;DHT22;9563;49.240;9.088;2024-02-26T06:10:24;7.10;99.90
18868;DHT22;9563;49.240;9.088;2024-02-26T06:12:50;7.10;99.90
18868;DHT22;9563;49.240;9.088;2024-02-26T06:15:17;7.10;99.90
18868;DHT22;9563;49.240;9.088;2024-02-26T06:17:44;7.10;99.90
18868;DHT22;9563;49.240;9.088;2024-02-26T06:20:11;7.10;99.90
18868;DHT22;9563;49.240;9.088;2024-02-26T06:22:39;7.10;99.90
18868;DHT22;9563;49.240;9.088;2024-02-26T06:25:07;7.20;99.90
18868;DHT22;9563;49.240;9.088;2024-02-26T06:27:36;7.20;99.90
18868;DHT22;9563;49.240;9.088;2024-02-26T06:30:03;7.20;99.90
18868;DHT22;9563;49.240;9.088;2024-02-26T06:32:30;7.30;99.90
18868;DHT22;9563;49.240;9.088;2024-02-26T06:34:57;7.30;99.90
18868;DHT22;9563;49.240;9.088;2024-02-26T06:37:26;7.30;99.90
18868;DHT22;9563;49.240;9.088;2024-02-26T06:39:53;7.40;99.90
18868;DHT22;9563;49.240;9.088;2024-02-26T06:42:20;7.40;99.90
18868;DHT22;9563;49.240;9.088;2024-02-26T06:44:48;7.40;99.90
18868;DHT22;9563;49.240;9.088;2024-02-26T06:47:15;7.40;99.90
18868;DHT22;9563;49.240;9.088;2024-02-26T06:49:42;7.50;99.90
18868;DHT22;9563;49.240;9.088;2024-02-26T06:52:09;7.60;99.90
18868;DHT22;9563;49.240;9.088;2024-02-26T06:54:36;7.60;99.90
18868;DHT22;9563;49.240;9.088;2024-02-26T06:57:03;7.60;99.90
18868;DHT22;9563;49.240;9.088;2024-02-26T06:59:30;7.70;99.90
18868;DHT22;9563;49.240;9.088;2024-02-26T07:01:59;7.70;99.90
18868;DHT22;9563;49.240;9.088;2024-02-26T07:04:26;7.70;99.90
18868;DHT22;9563;49.240;9.088;2024-02-26T07:06:52;7.70;99.90
18868;DHT22;9563;49.240;9.088;2024-02-26T07:09:19;7.70;99.90
18868;DHT22;9563;49.240;9.088;2024-02-26T07:11:46;7.60;99.90
18868;DHT22;9563;49.240;9.088;2024-02-26T07:14:13;7.60;99.90
18868;DHT22;9563;49.240;9.088;2024-02-26T07:16:40;7.70;99.90
18868;DHT22;9563;49.240;9.088;2024-02-26T07:19:08;7.70;99.90
18868;DHT22;9563;49.240;9.088;2024-02-26T07:21:35;7.70;99.90
18868;DHT22;9563;49.240;9.088;2024-02-26T07:24:02;7.70;99.90
18868;DHT22;9563;49.240;9.088;2024-02-26T07:26:29;7.70;99.90
18868;DHT22;9563;49.240;9.088;2024-02-26T07:28:56;7.70;99.90
18868;DHT22;9563;49.240;9.088;2024-02-26T07:31:23;7.70;99.90
18868;DHT22;9563;49.240;9.088;2024-02-26T07:33:50;7.60;99.90
18868;DHT22;9563;49.240;9.088;2024-02-26T07:36:18;7.60;99.90
18868;DHT22;9563;49.240;9.088;2024-02-26T07:38:45;7.60;99.90
18868;DHT22;9563;49.240;9.088;2024-02-26T07:41:12;7.50;99.90
18868;DHT22;9563;49.240;9.088;2024-02-26T07:43:39;7.60;99.90
18868;DHT22;9563;49.240;9.088;2024-02-26T07:46:06;7.50;99.90
18868;DHT22;9563;49.240;9.088;2024-02-26T07:48:33;7.50;99.90
18868;DHT22;9563;49.240;9.088;2024-02-26T07:51:00;7.60;99.90
18868;DHT22;9563;49.240;9.088;2024-02-26T07:53:30;7.60;99.90
18868;DHT22;9563;49.240;9.088;2024-02-26T07:55:57;7.60;99.90
18868;DHT22;9563;49.240;9.088;2024-02-26T07:58:24;7.60;99.90
18868;DHT22;9563;49.240;9.088;2024-02-26T08:00:50;7.60;99.90
18868;DHT22;9563;49.240;9.088;2024-02-26T08:03:17;7.60;99.90
18868;DHT22;9563;49.240;9.088;2024-02-26T08:05:44;7.60;99.90
18868;DHT22;9563;49.240;9.088;2024-02-26T08:08:11;7.60;99.90
18868;DHT22;9563;49.240;9.088;2024-02-26T08:10:39;7.70;99.90
18868;DHT22;9563;49.240;9.088;2024-02-26T08:13:06;7.80;99.90
18868;DHT22;9563;49.240;9.088;2024-02-26T08:15:33;7.90;99.90
18868;DHT22;9563;49.240;9.088;2024-02-26T08:18:00;8.10;99.90
18868;DHT22;9563;49.240;9.088;2024-02-26T08:20:27;8.20;99.90
18868;DHT22;9563;49.240;9.088;2024-02-26T08:22:54;8.20;99.90
18868;DHT22;9563;49.240;9.088;2024-02-26T08:25:21;8.20;99.90
18868;DHT22;9563;49.240;9.088;2024-02-26T08:27:51;8.20;99.90
18868;DHT22;9563;49.240;9.088;2024-02-26T08:30:18;8.20;99.90
18868;DHT22;9563;49.240;9.088;2024-02-26T08:32:45;8.10;99.90
18868;DHT22;9563;49.240;9.088;2024-02-26T08:35:12;8.20;99.90
18868;DHT22;9563;49.240;9.088;2024-02-26T08:37:39;8.10;99.90
18868;DHT22;9563;49.240;9.088;2024-02-26T08:40:07;8.10;99.90
18868;DHT22;9563;49.240;9.088;2024-02-26T08:42:34;8.10;99.90
18868;DHT22;9563;49.240;9.088;2024-02-26T08:45:02;8.20;99.90
18868;DHT22;9563;49.240;9.088;2024-02-26T08:47:29;8.30;99.90
18868;DHT22;9563;49.240;9.088;2024-02-26T08:49:56;8.40;99.90
18868;DHT22;9563;49.240;9.088;2024-02-26T08:52:23;8.50;99.90
18868;DHT22;9563;49.240;9.088;2024-02-26T08:54:50;8.60;99.90
18868;DHT22;9563;49.240;9.088;2024-02-26T08:57:17;8.70;99.90
18868;DHT22;9563;49.240;9.088;2024-02-26T08:59:43;8.80;99.90
18868;DHT22;9563;49.240;9.088;2024-02-26T09:02:12;8.80;99.90
18868;DHT22;9563;49.240;9.088;2024-02-26T09:04:38;8.80;99.90
18868;DHT22;9563;49.240;9.088;2024-02-26T09:07:05;8.80;99.90
18868;DHT22;9563;49.240;9.088;2024-02-26T09:09:33;8.80;99.90
18868;DHT22;9563;49.240;9.088;2024-02-26T09:11:59;8.80;99.90
18868;DHT22;9563;49.240;9.088;2024-02-26T09:14:26;8.90;99.90
18868;DHT22;9563;49.240;9.088;2024-02-26T09:16:53;8.90;99.90
18868;DHT22;9563;49.240;9.088;2024-02-26T09:19:21;9.00;99.90
18868;DHT22;9563;49.240;9.088;2024-02-26T09:21:48;9.00;99.90
18868;DHT22;9563;49.240;9.088;2024-02-26T09:24:15;9.00;99.90
18868;DHT22;9563;49.240;9.088;2024-02-26T09:26:42;9.10;99.90
18868;DHT22;9563;49.240;9.088;2024-02-26T09:29:08;9.20;99.90
18868;DHT22;9563;49.240;9.088;2024-02-26T09:31:35;9.20;99.90
18868;DHT22;9563;49.240;9.088;2024-02-26T09:34:02;9.30;99.90
18868;DHT22;9563;49.240;9.088;2024-02-26T09:36:31;9.40;99.90
18868;DHT22;9563;49.240;9.088;2024-02-26T09:38:58;9.60;99.90
18868;DHT22;9563;49.240;9.088;2024-02-26T09:41:27;9.80;99.90
18868;DHT22;9563;49.240;9.088;2024-02-26T09:43:56;10.00;99.90
18868;DHT22;9563;49.240;9.088;2024-02-26T09:46:25;10.30;99.90
18868;DHT22;9563;49.240;9.088;2024-02-26T09:48:52;10.40;99.90
18868;DHT22;9563;49.240;9.088;2024-02-26T09:51:19;10.50;99.90
18868;DHT22;9563;49.240;9.088;2024-02-26T09:53:52;10.40;99.90
18868;DHT22;9563;49.240;9.088;2024-02-26T09:56:19;10.50;99.90
18868;DHT22;9563;49.240;9.088;2024-02-26T09:58:46;10.50;99.90
18868;DHT22;9563;49.240;9.088;2024-02-26T10:01:18;10.50;99.90
18868;DHT22;9563;49.240;9.088;2024-02-26T10:03:51;10.40;99.90
18868;DHT22;9563;49.240;9.088;2024-02-26T10:06:19;10.40;99.90
18868;DHT22;9563;49.240;9.088;2024-02-26T10:08:47;10.30;99.90
18868;DHT22;9563;49.240;9.088;2024-02-26T10:11:16;10.20;99.90
18868;DHT22;9563;49.240;9.088;2024-02-26T10:13:43;10.20;99.90
18868;DHT22;9563;49.240;9.088;2024-02-26T10:16:10;10.10;99.90
18868;DHT22;9563;49.240;9.088;2024-02-26T10:18:47;10.10;99.90
18868;DHT22;9563;49.240;9.088;2024-02-26T10:21:16;10.20;99.90
18868;DHT22;9563;49.240;9.088;2024-02-26T10:23:43;10.30;99.90
18868;DHT22;9563;49.240;9.088;2024-02-26T10:26:11;10.30;99.90
18868;DHT22;9563;49.240;9.088;2024-02-26T10:28:41;10.40;99.90
18868;DHT22;9563;49.240;9.088;2024-02-26T10:31:08;10.30;99.90
18868;DHT22;9563;49.240;9.088;2024-02-26T10:33:36;10.50;99.90
18868;DHT22;9563;49.240;9.088;2024-02-26T10:36:04;10.60;99.90
18868;DHT22;9563;49.240;9.088;2024-02-26T10:38:33;10.70;99.90
18868;DHT22;9563;49.240;9.088;2024-02-26T10:41:01;10.70;99.90
18868;DHT22;9563;49.240;9.088;2024-02-26T10:43:28;10.80;99.90
18868;DHT22;9563;49.240;9.088;2024-02-26T10:45:57;10.80;99.90
18868;DHT22;9563;49.240;9.088;2024-02-26T10:48:24;10.90;99.90
18868;DHT22;9563;49.240;9.088;2024-02-26T10:50:51;11.10;99.90
18868;DHT22;9563;49.240;9.088;2024-02-26T10:53:20;11.20;99.90
18868;DHT22;9563;49.240;9.088;2024-02-26T10:55:49;11.30;99.90
18868;DHT22;9563;49.240;9.088;2024-02-26T10:58:19;11.20;99.90
18868;DHT22;9563;49.240;9.088;2024-02-26T11:00:48;11.30;99.90
18868;DHT22;9563;49.240;9.088;2024-02-26T11:03:17;11.20;99.90
18868;DHT22;9563;49.240;9.088;2024-02-26T11:05:46;11.30;99.90
18868;DHT22;9563;49.240;9.088;2024-02-26T11:08:14;11.40;99.90
18868;DHT22;9563;49.240;9.088;2024-02-26T11:10:42;11.40;99.90
18868;DHT22;9563;49.240;9.088;2024-02-26T11:13:12;11.50;99.90
18868;DHT22;9563;49.240;9.088;2024-02-26T11:15:40;11.60;99.90
18868;DHT22;9563;49.240;9.088;2024-02-26T11:18:08;12.00;99.90
18868;DHT22;9563;49.240;9.088;2024-02-26T11:20:38;12.50;99.90
18868;DHT22;9563;49.240;9.088;2024-02-26T11:23:07;13.00;99.90
18868;DHT22;9563;49.240;9.088;2024-02-26T11:25:34;13.40;99.90
18868;DHT22;9563;49.240;9.088;2024-02-26T11:28:05;13.90;99.90
18868;DHT22;9563;49.240;9.088;2024-02-26T11:30:37;14.10;99.90
18868;DHT22;9563;49.240;9.088;2024-02-26T11:33:06;14.10;99.90
18868;DHT22;9563;49.240;9.088;2024-02-26T11:35:37;14.40;99.90
18868;DHT22;9563;49.240;9.088;2024-02-26T11:38:04;14.60;99.90
18868;DHT22;9563;49.240;9.088;2024-02-26T11:40:33;14.70;99.90
18868;DHT22;9563;49.240;9.088;2024-02-26T11:43:00;15.10;99.90
18868;DHT22;9563;49.240;9.088;2024-02-26T11:45:52;15.60;99.90
18868;DHT22;9563;49.240;9.088;2024-02-26T11:48:21;16.00;99.90
18868;DHT22;9563;49.240;9.088;2024-02-26T11:50:51;16.20;99.90
18868;DHT22;9563;49.240;9.088;2024-02-26T11:53:23;16.40;99.90
18868;DHT22;9563;49.240;9.088;2024-02-26T11:56:13;16.20;99.90
18868;DHT22;9563;49.240;9.088;2024-02-26T11:58:40;15.90;99.90
18868;DHT22;9563;49.240;9.088;2024-02-26T12:01:40;15.80;99.90
18868;DHT22;9563;49.240;9.088;2024-02-26T12:04:12;15.80;99.90
18868;DHT22;9563;49.240;9.088;2024-02-26T12:06:44;15.80;99.90
18868;DHT22;9563;49.240;9.088;2024-02-26T12:09:11;15.70;99.90
18868;DHT22;9563;49.240;9.088;2024-02-26T12:11:39;15.80;99.90
18868;DHT22;9563;49.240;9.088;2024-02-26T12:14:08;15.90;99.90
18868;DHT22;9563;49.240;9.088;2024-02-26T12:16:36;16.20;99.90
18868;DHT22;9563;49.240;9.088;2024-02-26T12:19:04;16.60;99.90
18868;DHT22;9563;49.240;9.088;2024-02-26T12:21:33;16.70;99.90
18868;DHT22;9563;49.240;9.088;2024-02-26T12:24:12;17.20;99.90
18868;DHT22;9563;49.240;9.088;2024-02-26T12:26:39;17.50;99.90
18868;DHT22;9563;49.240;9.088;2024-02-26T12:29:06;17.90;99.90
18868;DHT22;9563;49.240;9.088;2024-02-26T12:31:33;18.30;99.90
18868;DHT22;9563;49.240;9.088;2024-02-26T12:34:02;18.50;99.90
18868;DHT22;9563;49.240;9.088;2024-02-26T12:36:29;18.80;99.90
18868;DHT22;9563;49.240;9.088;2024-02-26T12:38:56;19.10;99.90
18868;DHT22;9563;49.240;9.088;2024-02-26T12:41:25;19.00;99.90
18868;DHT22;9563;49.240;9.088;2024-02-26T12:43:53;18.40;99.90
18868;DHT22;9563;49.240;9.088;2024-02-26T12:46:20;18.30;99.90
18868;DHT22;9563;49.240;9.088;2024-02-26T12:48:47;18.80;99.90
18868;DHT22;9563;49.240;9.088;2024-02-26T12:51:15;19.10;99.90
18868;DHT22;9563;49.240;9.088;2024-02-26T12:53:43;19.30;99.90
18868;DHT22;9563;49.240;9.088;2024-02-26T12:56:10;18.90;98.40
18868;DHT22;9563;49.240;9.088;2024-02-26T12:58:39;18.40;97.80
18868;DHT22;9563;49.240;9.088;2024-02-26T13:01:06;18.20;98.30
18868;DHT22;9563;49.240;9.088;2024-02-26T13:03:35;18.10;98.80
18868;DHT22;9563;49.240;9.088;2024-02-26T13:06:03;18.40;99.10
18868;DHT22;9563;49.240;9.088;2024-02-26T13:08:32;18.70;97.30
18868;DHT22;9563;49.240;9.088;2024-02-26T13:10:59;18.70;96.70
18868;DHT22;9563;49.240;9.088;2024-02-26T13:13:26;18.60;97.10
18868;DHT22;9563;49.240;9.088;2024-02-26T13:16:03;18.40;95.30
18868;DHT22;9563;49.240;9.088;2024-02-26T13:18:33;18.20;95.60
18868;DHT22;9563;49.240;9.088;2024-02-26T13:21:09;17.90;96.90
18868;DHT22;9563;49.240;9.088;2024-02-26T13:23:37;17.70;96.80
18868;DHT22;9563;49.240;9.088;2024-02-26T13:26:04;17.40;97.00
18868;DHT22;9563;49.240;9.088;2024-02-26T13:28:31;17.20;97.40
18868;DHT22;9563;49.240;9.088;2024-02-26T13:30:58;17.10;99.00
18868;DHT22;9563;49.240;9.088;2024-02-26T13:33:28;17.30;99.20
18868;DHT22;9563;49.240;9.088;2024-02-26T13:35:56;18.00;99.10
18868;DHT22;9563;49.240;9.088;2024-02-26T13:38:23;18.40;96.40
18868;DHT22;9563;49.240;9.088;2024-02-26T13:40:51;19.00;96.10
18868;DHT22;9563;49.240;9.088;2024-02-26T13:43:18;19.40;95.70
18868;DHT22;9563;49.240;9.088;2024-02-26T13:45:45;19.60;93.50
18868;DHT22;9563;49.240;9.088;2024-02-26T13:48:14;19.40;92.80
18868;DHT22;9563;49.240;9.088;2024-02-26T13:50:43;18.60;91.70
18868;DHT22;9563;49.240;9.088;2024-02-26T13:53:10;18.50;93.80
18868;DHT22;9563;49.240;9.088;2024-02-26T13:55:38;18.20;94.30
18868;DHT22;9563;49.240;9.088;2024-02-26T13:58:08;18.00;94.80
18868;DHT22;9563;49.240;9.088;2024-02-26T14:00:35;17.70;95.30
18868;DHT22;9563;49.240;9.088;2024-02-26T14:03:02;17.40;96.00
18868;DHT22;9563;49.240;9.088;2024-02-26T14:05:29;17.10;96.10
18868;DHT22;9563;49.240;9.088;2024-02-26T14:07:58;16.90;97.30
18868;DHT22;9563;49.240;9.088;2024-02-26T14:10:24;16.70;98.20
18868;DHT22;9563;49.240;9.088;2024-02-26T14:12:51;16.30;98.10
18868;DHT22;9563;49.240;9.088;2024-02-26T14:15:18;15.80;99.90
18868;DHT22;9563;49.240;9.088;2024-02-26T14:17:45;15.80;99.90
18868;DHT22;9563;49.240;9.088;2024-02-26T14:20:18;15.60;99.90
18868;DHT22;9563;49.240;9.088;2024-02-26T14:22:45;15.50;99.90
18868;DHT22;9563;49.240;9.088;2024-02-26T14:25:14;15.40;99.90
18868;DHT22;9563;49.240;9.088;2024-02-26T14:27:40;15.30;99.90
18868;DHT22;9563;49.240;9.088;2024-02-26T14:30:08;15.10;99.90
18868;DHT22;9563;49.240;9.088;2024-02-26T14:32:35;15.10;99.90
18868;DHT22;9563;49.240;9.088;2024-02-26T14:35:04;15.10;99.90
18868;DHT22;9563;49.240;9.088;2024-02-26T14:37:31;15.20;99.90
18868;DHT22;9563;49.240;9.088;2024-02-26T14:39:58;15.20;99.90
18868;DHT22;9563;49.240;9.088;2024-02-26T14:42:26;15.40;99.90
18868;DHT22;9563;49.240;9.088;2024-02-26T14:44:53;15.60;99.90
18868;DHT22;9563;49.240;9.088;2024-02-26T14:47:20;15.80;99.90
18868;DHT22;9563;49.240;9.088;2024-02-26T14:49:47;16.10;99.90
18868;DHT22;9563;49.240;9.088;2024-02-26T14:52:14;16.20;99.90
18868;DHT22;9563;49.240;9.088;2024-02-26T14:54:41;16.30;99.90
18868;DHT22;9563;49.240;9.088;2024-02-26T14:57:08;16.30;99.90
18868;DHT22;9563;49.240;9.088;2024-02-26T14:59:37;16.30;99.90
18868;DHT22;9563;49.240;9.088;2024-02-26T15:02:04;16.20;99.90
18868;DHT22;9563;49.240;9.088;2024-02-26T15:04:31;16.20;99.90
18868;DHT22;9563;49.240;9.088;2024-02-26T15:06:58;16.10;99.90
18868;DHT22;9563;49.240;9.088;2024-02-26T15:09:26;16.00;99.90
18868;DHT22;9563;49.240;9.088;2024-02-26T15:11:52;15.90;99.90
18868;DHT22;9563;49.240;9.088;2024-02-26T15:14:19;15.70;99.90
18868;DHT22;9563;49.240;9.088;2024-02-26T15:16:48;15.50;99.90
18868;DHT22;9563;49.240;9.088;2024-02-26T15:19:15;15.30;99.90
18868;DHT22;9563;49.240;9.088;2024-02-26T15:21:43;15.20;99.90
18868;DHT22;9563;49.240;9.088;2024-02-26T15:24:11;14.90;99.90
18868;DHT22;9563;49.240;9.088;2024-02-26T15:26:38;14.70;99.90
18868;DHT22;9563;49.240;9.088;2024-02-26T15:29:06;14.50;99.90
18868;DHT22;9563;49.240;9.088;2024-02-26T15:31:34;14.40;99.90
18868;DHT22;9563;49.240;9.088;2024-02-26T15:34:02;14.30;99.90
18868;DHT22;9563;49.240;9.088;2024-02-26T15:36:29;14.20;99.90
18868;DHT22;9563;49.240;9.088;2024-02-26T15:38:56;14.10;99.90
18868;DHT22;9563;49.240;9.088;2024-02-26T15:41:23;14.00;99.90
18868;DHT22;9563;49.240;9.088;2024-02-26T15:43:50;14.00;99.90
18868;DHT22;9563;49.240;9.088;2024-02-26T15:46:17;14.00;99.90
18868;DHT22;9563;49.240;9.088;2024-02-26T15:48:44;13.90;99.90
18868;DHT22;9563;49.240;9.088;2024-02-26T15:51:20;13.90;99.90
18868;DHT22;9563;49.240;9.088;2024-02-26T15:53:47;13.80;99.90
18868;DHT22;9563;49.240;9.088;2024-02-26T15:56:16;13.80;99.90
18868;DHT22;9563;49.240;9.088;2024-02-26T15:58:43;13.70;99.90
18868;DHT22;9563;49.240;9.088;2024-02-26T16:01:10;13.70;99.90
18868;DHT22;9563;49.240;9.088;2024-02-26T16:03:37;13.70;99.90
18868;DHT22;9563;49.240;9.088;2024-02-26T16:06:06;13.70;99.90
18868;DHT22;9563;49.240;9.088;2024-02-26T16:08:35;13.70;99.90
18868;DHT22;9563;49.240;9.088;2024-02-26T16:11:02;13.70;99.90
18868;DHT22;9563;49.240;9.088;2024-02-26T16:13:29;13.70;99.90
18868;DHT22;9563;49.240;9.088;2024-02-26T16:16:02;13.60;99.90
18868;DHT22;9563;49.240;9.088;2024-02-26T16:18:30;13.60;99.90
18868;DHT22;9563;49.240;9.088;2024-02-26T16:20:57;13.60;99.90
18868;DHT22;9563;49.240;9.088;2024-02-26T16:23:24;13.50;99.90
18868;DHT22;9563;49.240;9.088;2024-02-26T16:25:52;13.50;99.90
18868;DHT22;9563;49.240;9.088;2024-02-26T16:28:19;13.40;99.90
18868;DHT22;9563;49.240;9.088;2024-02-26T16:30:50;13.40;99.90
18868;DHT22;9563;49.240;9.088;2024-02-26T16:33:18;13.30;99.90
18868;DHT22;9563;49.240;9.088;2024-02-26T16:35:45;13.20;99.90
18868;DHT22;9563;49.240;9.088;2024-02-26T16:38:12;13.10;99.90
18868;DHT22;9563;49.240;9.088;2024-02-26T16:40:40;12.90;99.90
18868;DHT22;9563;49.240;9.088;2024-02-26T16:43:09;12.80;99.90
18868;DHT22;9563;49.240;9.088;2024-02-26T16:45:36;12.70;99.90
18868;DHT22;9563;49.240;9.088;2024-02-26T16:48:03;12.60;99.90
18868;DHT22;9563;49.240;9.088;2024-02-26T16:50:30;12.60;99.90
18868;DHT22;9563;49.240;9.088;2024-02-26T16:52:57;12.50;99.90
18868;DHT22;9563;49.240;9.088;2024-02-26T16:55:24;12.40;99.90
18868;DHT22;9563;49.240;9.088;2024-02-26T16:57:53;12.30;99.90
18868;DHT22;9563;49.240;9.088;2024-02-26T17:00:22;12.30;99.90
18868;DHT22;9563;49.240;9.088;2024-02-26T17:02:49;12.20;99.90
18868;DHT22;9563;49.240;9.088;2024-02-26T17:05:16;12.10;99.90
18868;DHT22;9563;49.240;9.088;2024-02-26T17:07:43;12.00;99.90
18868;DHT22;9563;49.240;9.088;2024-02-26T17:10:11;12.00;99.90
18868;DHT22;9563;49.240;9.088;2024-02-26T17:12:38;12.00;99.90
18868;DHT22;9563;49.240;9.088;2024-02-26T17:15:06;12.00;99.90
18868;DHT22;9563;49.240;9.088;2024-02-26T17:17:36;12.00;99.90
18868;DHT22;9563;49.240;9.088;2024-02-26T17:20:03;12.00;99.90
18868;DHT22;9563;49.240;9.088;2024-02-26T17:22:31;11.90;99.90
18868;DHT22;9563;49.240;9.088;2024-02-26T17:24:58;11.90;99.90
18868;DHT22;9563;49.240;9.088;2024-02-26T17:27:25;11.90;99.90
18868;DHT22;9563;49.240;9.088;2024-02-26T17:29:52;11.80;99.90
18868;DHT22;9563;49.240;9.088;2024-02-26T17:32:19;11.80;99.90
18868;DHT22;9563;49.240;9.088;2024-02-26T17:34:47;11.70;99.90
18868;DHT22;9563;49.240;9.088;2024-02-26T17:37:14;11.70;99.90
18868;DHT22;9563;49.240;9.088;2024-02-26T17:39:41;11.60;99.90
18868;DHT22;9563;49.240;9.088;2024-02-26T17:42:08;11.60;99.90
18868;DHT22;9563;49.240;9.088;2024-02-26T17:44:37;11.50;99.90
18868;DHT22;9563;49.240;9.088;2024-02-26T17:47:04;11.50;99.90
18868;DHT22;9563;49.240;9.088;2024-02-26T17:49:31;11.50;99.90
18868;DHT22;9563;49.240;9.088;2024-02-26T17:52:00;11.50;99.90
18868;DHT22;9563;49.240;9.088;2024-02-26T17:54:27;11.50;99.90
18868;DHT22;9563;49.240;9.088;2024-02-26T17:56:54;11.50;99.90
18868;DHT22;9563;49.240;9.088;2024-02-26T17:59:22;11.50;99.90
18868;DHT22;9563;49.240;9.088;2024-02-26T18:01:49;11.50;99.90
18868;DHT22;9563;49.240;9.088;2024-02-26T18:04:16;11.50;99.90
18868;DHT22;9563;49.240;9.088;2024-02-26T18:06:43;11.40;99.90
18868;DHT22;9563;49.240;9.088;2024-02-26T18:09:12;11.40;99.90
18868;DHT22;9563;49.240;9.088;2024-02-26T18:11:42;11.40;99.90
18868;DHT22;9563;49.240;9.088;2024-02-26T18:14:09;11.40;99.90
18868;DHT22;9563;49.240;9.088;2024-02-26T18:16:36;11.30;99.90
18868;DHT22;9563;49.240;9.088;2024-02-26T18:19:03;11.30;99.90
18868;DHT22;9563;49.240;9.088;2024-02-26T18:21:30;11.40;99.90
18868;DHT22;9563;49.240;9.088;2024-02-26T18:23:56;11.40;99.90
18868;DHT22;9563;49.240;9.088;2024-02-26T18:26:25;11.30;99.90
18868;DHT22;9563;49.240;9.088;2024-02-26T18:28:52;11.30;99.90
18868;DHT22;9563;49.240;9.088;2024-02-26T18:31:18;11.30;99.90
18868;DHT22;9563;49.240;9.088;2024-02-26T18:33:46;11.20;99.90
18868;DHT22;9563;49.240;9.088;2024-02-26T18:36:13;11.20;99.90
18868;DHT22;9563;49.240;9.088;2024-02-26T18:38:41;11.20;99.90
18868;DHT22;9563;49.240;9.088;2024-02-26T18:41:17;11.10;99.90
18868;DHT22;9563;49.240;9.088;2024-02-26T18:43:46;11.10;99.90
18868;DHT22;9563;49.240;9.088;2024-02-26T18:46:13;11.10;99.90
18868;DHT22;9563;49.240;9.088;2024-02-26T18:48:40;11.00;99.90
18868;DHT22;9563;49.240;9.088;2024-02-26T18:51:08;11.00;99.90
18868;DHT22;9563;49.240;9.088;2024-02-26T18:53:34;11.00;99.90
18868;DHT22;9563;49.240;9.088;2024-02-26T18:56:01;11.00;99.90
18868;DHT22;9563;49.240;9.088;2024-02-26T18:58:29;11.00;99.90
18868;DHT22;9563;49.240;9.088;2024-02-26T19:00:57;11.00;99.90
18868;DHT22;9563;49.240;9.088;2024-02-26T19:03:24;10.90;99.90
18868;DHT22;9563;49.240;9.088;2024-02-26T19:05:51;10.90;99.90
18868;DHT22;9563;49.240;9.088;2024-02-26T19:08:17;10.90;99.90
18868;DHT22;9563;49.240;9.088;2024-02-26T19:10:44;11.00;99.90
18868;DHT22;9563;49.240;9.088;2024-02-26T19:13:11;11.00;99.90
18868;DHT22;9563;49.240;9.088;2024-02-26T19:15:38;10.90;99.90
18868;DHT22;9563;49.240;9.088;2024-02-26T19:18:08;10.90;99.90
18868;DHT22;9563;49.240;9.088;2024-02-26T19:20:36;11.00;99.90
18868;DHT22;9563;49.240;9.088;2024-02-26T19:23:03;11.00;99.90
18868;DHT22;9563;49.240;9.088;2024-02-26T19:25:30;11.00;99.90
18868;DHT22;9563;49.240;9.088;2024-02-26T19:27:56;10.90;99.90
18868;DHT22;9563;49.240;9.088;2024-02-26T19:30:23;10.90;99.90
18868;DHT22;9563;49.240;9.088;2024-02-26T19:32:50;10.90;99.90
18868;DHT22;9563;49.240;9.088;2024-02-26T19:35:19;10.90;99.90
18868;DHT22;9563;49.240;9.088;2024-02-26T19:37:46;10.90;99.90
18868;DHT22;9563;49.240;9.088;2024-02-26T19:40:13;10.90;99.90
18868;DHT22;9563;49.240;9.088;2024-02-26T19:42:40;10.90;99.90
18868;DHT22;9563;49.240;9.088;2024-02-26T19:45:08;10.90;99.90
18868;DHT22;9563;49.240;9.088;2024-02-26T19:47:37;11.00;99.90
18868;DHT22;9563;49.240;9.088;2024-02-26T19:50:06;11.00;99.90
18868;DHT22;9563;49.240;9.088;2024-02-26T19:52:34;11.00;99.90
18868;DHT22;9563;49.240;9.088;2024-02-26T19:55:02;10.90;99.90
18868;DHT22;9563;49.240;9.088;2024-02-26T19:57:29;10.90;99.90
18868;DHT22;9563;49.240;9.088;2024-02-26T19:59:57;10.80;99.90
18868;DHT22;9563;49.240;9.088;2024-02-26T20:02:23;10.80;99.90
18868;DHT22;9563;49.240;9.088;2024-02-26T20:04:50;10.80;99.90
18868;DHT22;9563;49.240;9.088;2024-02-26T20:07:17;10.80;99.90
18868;DHT22;9563;49.240;9.088;2024-02-26T20:09:47;10.70;99.90
18868;DHT22;9563;49.240;9.088;2024-02-26T20:12:14;10.60;99.90
18868;DHT22;9563;49.240;9.088;2024-02-26T20:14:42;10.60;99.90
18868;DHT22;9563;49.240;9.088;2024-02-26T20:17:09;10.60;99.90
18868;DHT22;9563;49.240;9.088;2024-02-26T20:19:36;10.60;99.90
18868;DHT22;9563;49.240;9.088;2024-02-26T20:22:03;10.60;99.90
18868;DHT22;9563;49.240;9.088;2024-02-26T20:24:30;10.60;99.90
18868;DHT22;9563;49.240;9.088;2024-02-26T20:26:58;10.60;99.90
18868;DHT22;9563;49.240;9.088;2024-02-26T20:29:25;10.50;99.90
18868;DHT22;9563;49.240;9.088;2024-02-26T20:31:52;10.50;99.90
18868;DHT22;9563;49.240;9.088;2024-02-26T20:34:18;10.50;99.90
18868;DHT22;9563;49.240;9.088;2024-02-26T20:36:45;10.50;99.90
18868;DHT22;9563;49.240;9.088;2024-02-26T20:39:12;10.50;99.90
18868;DHT22;9563;49.240;9.088;2024-02-26T20:41:39;10.50;99.90
18868;DHT22;9563;49.240;9.088;2024-02-26T20:44:07;10.40;99.90
18868;DHT22;9563;49.240;9.088;2024-02-26T20:46:37;10.50;99.90
18868;DHT22;9563;49.240;9.088;2024-02-26T20:49:05;10.50;99.90
18868;DHT22;9563;49.240;9.088;2024-02-26T20:51:33;10.50;99.90
18868;DHT22;9563;49.240;9.088;2024-02-26T20:53:59;10.40;99.90